Delray Beach, FL (33444)

7:45 PM EDT on June 21, 2018 (GMT -0400)
Lake Ida - Garden House | | Change Station

Elev 0 ft 26.48 °N, 80.07 °W | Updated 16 seconds ago

Partly Cloudy
Partly Cloudy
81 °F
Feels Like 86 °F
N
0
Wind Variable Wind from SW
Gusts 0.0 mph

Today
High -- | Low -- °F
--% Chance of Precip.
Yesterday
High -- | Low -- °F
Precip. -- in
Pressure 29.94 in
Visibility 7.0 miles
Clouds Few 7500 ft
Mostly Cloudy 11000 ft
Heat Index 86 °F
Dew Point 74 °F
Humidity 80%
Rainfall 0.01 in
Snow Depth Not available.
6:28 AM 8:16 PM
Waxing Gibbous, 66% visible
METAR KPMP 212253Z 30004KT 7SM -RA FEW075 BKN110 26/24 A2993 RMK AO2 RAE06B31 TSE03 SLP136 P0000 T02610244
Pressure 29.94 in
Visibility 7.0 miles
Clouds Few 7500 ft
Mostly Cloudy 11000 ft
Heat Index 86 °F
Dew Point 74 °F
Humidity 80%
Rainfall 0.01 in
Snow Depth Not available.
6:28 AM 8:16 PM
Waxing Gibbous, 66% visible
METAR KPMP 212253Z 30004KT 7SM -RA FEW075 BKN110 26/24 A2993 RMK AO2 RAE06B31 TSE03 SLP136 P0000 T02610244

Get Severe Weather Alerts

Thanks for signing up!

Be on the lookout for a verification email in your inbox.

You'll start receiving the daily forecast at 6 AM.

×

10-Day Weather Forecast

Almanac

Astronomy

Jun. 21, 2018 Rise Set
Actual Time
Civil Twilight
Nautical Twilight
Astronomical Twilight
Moon
Length of Visible Light
Length of Day
Tomorrow will be .
, % of the Moon is Illuminated

Today's Extremes

State Highs State Lows

Community

WunderPhotos

Category 6

Welcome to Category 6. This is the collective home for Weather Underground's featured writeups by Dr. Jeff Masters (right), Bob Henson (left), Chris Burt, and other regular contributors.

Nearby

Air Quality

  Air Quality AQ Index Pollutant
Not available.

Snow Depth

Station Depth Elevation

Earthquake Activity

City Distance Mag. Time & Date
Minimum magnitude displayed is 2.5.

Coastal Water Temperatures

Place Temperature

Stations

Nearby Weather Stations

Station Location Temp. Windchill Dew Point Humidity Wind Precip. Elev Updated Type
                   

Watches & Warnings

There are currently no watches in effect.